METAR|ÜBERSETZT|TAF
EDHK 250650Z 26005KT 3600 BR OVC002 12/12 Q1013
Login|Impressum|Kontakt

Willkommen auf der Jugendgruppenseite des LSV Kiel!

ProfilbildJugru
Die Jugendgruppe auf ihrer Fahrt zur ILA 2014, im Hintergrund der A380 _______________________________________________________________________________________________

Die Jugendgruppe wird unterstützt von:

SHBB